Roxanne — PG5302 — position and weather

sailwx.info

Track history (hours):
 
Tides and Currents Weather Stations Pressure Air Temp Water Temp Dewpoint Dewpoint Depression Visibility Wind Speed Wind Dir Waves Ship Positions

Roxanne

Last reported at 2017-Jul-29 18:03 UTC. Time now 2017-Oct-22 13:48 UTC.
Position N 40°58' E 003°18'.
Warning: this ship's position is months out of date.

Length 17 m.

Type: Sailing vessel. MMSI: 244100994.

Date/timePositionNaut miles runAvg speedWind from/ knotsBaromVisibWave heightAir tempDewpointWater temp
2017-Jul-29 18:03N 40°58' E 003°18'1 7.5
2017-Jul-29 17:59N 40°57' E 003°17'4 7.5
2017-Jul-29 17:30N 40°54' E 003°15'4 8.4
2017-Jul-29 17:00N 40°51' E 003°12'4 7.9
2017-Jul-29 16:28N 40°47' E 003°09'4 7.5
2017-Jul-29 15:56N 40°44' E 003°06'4 7.7
2017-Jul-29 15:26N 40°40' E 003°03'3 7.9
2017-Jul-29 15:00N 40°37' E 003°01'8 7.6
2017-Jul-29 14:00N 40°31' E 002°56'3 6.1
2017-Jul-29 13:30N 40°28' E 002°56'5 8.8
2017-Jul-29 12:58N 40°23' E 002°53'4 8.6
2017-Jul-29 12:30N 40°20' E 002°51'4 6.9
2017-Jul-29 11:59N 40°17' E 002°49'3 6.0
2017-Jul-29 11:30N 40°14' E 002°47'3 6.7
2017-Jul-29 11:00N 40°11' E 002°46'3 6.6
2017-Jul-29 10:30N 40°08' E 002°44'3 6.6
2017-Jul-29 10:00N 40°05' E 002°42'3 6.7
2017-Jul-29 09:29N 40°02' E 002°40'3 6.6
2017-Jul-29 09:00N 39°59' E 002°37'3 6.7
2017-Jul-29 08:30N 39°56' E 002°35'3 6.7
2017-Jul-29 08:00N 39°53' E 002°33'3 6.7
2017-Jul-29 07:29N 39°50' E 002°31'  
2017-Jul-20 00:04N 39°07' E 001°31'0 0.0
2017-Jul-19 23:52N 39°07' E 001°31'0 0.0
2017-Jul-19 22:34N 39°07' E 001°31'0 0.0
2017-Jul-19 22:16N 39°07' E 001°31'0 0.0
2017-Jul-19 20:52N 39°07' E 001°31'0 0.0
2017-Jul-19 20:04N 39°07' E 001°31'0 0.0
2017-Jul-19 19:33N 39°07' E 001°31'0 0.0
2017-Jul-19 19:22N 39°07' E 001°31'0 0.0
2017-Jul-19 18:52N 39°07' E 001°31'  
Track history (hours):
 
Tides and Currents Weather Stations Pressure Air Temp Water Temp Dewpoint Dewpoint Depression Visibility Wind Speed Wind Dir Waves Ship Positions

Roxanne

Last reported at 2017-Jul-29 18:03 UTC. Time now 2017-Oct-22 13:48 UTC.
Position N 40°58' E 003°18'.
Warning: this ship's position is months out of date.

Length 17 m.

Type: Sailing vessel. MMSI: 244100994.

Date/timePositionNaut miles runAvg speedWind from/ knotsBaromVisibWave heightAir tempDewpointWater temp
2017-Jul-29 18:03N 40°58' E 003°18'1 7.5
2017-Jul-29 17:59N 40°57' E 003°17'4 7.5
2017-Jul-29 17:30N 40°54' E 003°15'4 8.4
2017-Jul-29 17:00N 40°51' E 003°12'4 7.9
2017-Jul-29 16:28N 40°47' E 003°09'4 7.5
2017-Jul-29 15:56N 40°44' E 003°06'4 7.7
2017-Jul-29 15:26N 40°40' E 003°03'3 7.9
2017-Jul-29 15:00N 40°37' E 003°01'8 7.6
2017-Jul-29 14:00N 40°31' E 002°56'3 6.1
2017-Jul-29 13:30N 40°28' E 002°56'5 8.8
2017-Jul-29 12:58N 40°23' E 002°53'4 8.6
2017-Jul-29 12:30N 40°20' E 002°51'4 6.9
2017-Jul-29 11:59N 40°17' E 002°49'3 6.0
2017-Jul-29 11:30N 40°14' E 002°47'3 6.7
2017-Jul-29 11:00N 40°11' E 002°46'3 6.6
2017-Jul-29 10:30N 40°08' E 002°44'3 6.6
2017-Jul-29 10:00N 40°05' E 002°42'3 6.7
2017-Jul-29 09:29N 40°02' E 002°40'3 6.6
2017-Jul-29 09:00N 39°59' E 002°37'3 6.7
2017-Jul-29 08:30N 39°56' E 002°35'3 6.7
2017-Jul-29 08:00N 39°53' E 002°33'3 6.7
2017-Jul-29 07:29N 39°50' E 002°31'  
2017-Jul-20 00:04N 39°07' E 001°31'0 0.0
2017-Jul-19 23:52N 39°07' E 001°31'0 0.0
2017-Jul-19 22:34N 39°07' E 001°31'0 0.0
2017-Jul-19 22:16N 39°07' E 001°31'0 0.0
2017-Jul-19 20:52N 39°07' E 001°31'0 0.0
2017-Jul-19 20:04N 39°07' E 001°31'0 0.0
2017-Jul-19 19:33N 39°07' E 001°31'0 0.0
2017-Jul-19 19:22N 39°07' E 001°31'0 0.0
2017-Jul-19 18:52N 39°07' E 001°31'  

Dump ship's entire track history